Terminal Aerodrome Forecast
Issued by NWS San Angelo, TX

Home | Current Version | Previous Version | Text Only | Print | Product List | Glossary On
Versions: 1 2 3 4 5 6 7 8 9 10 11 12 13 14 15 16 17 18 19 20 21 22 23 24 25
000
FTUS44 KSJT 210500
TAFSJT
TAF
KSJT 210525Z 2106/2206 VRB03KT P6SM OVC060
     FM210800 VRB03KT P6SM OVC015
     FM211700 08008KT P6SM OVC050=

USA.gov is the U.S. government's official web portal to all federal, state and local government web resources and services.